地図

経路データ

SID SEASON NUMBER BASIN SUBBASIN NAME ISO_TIME NATURE LAT LON WMO_WIND WMO_PRES WMO_AGENCY TRACK_TYPE DIST2LAND LANDFALL IFLAG USA_AGENCY USA_ATCF_ID USA_LAT USA_LON USA_RECORD USA_STATUS USA_WIND USA_PRES USA_SSHS USA_R34_NE USA_R34_SE USA_R34_SW USA_R34_NW USA_R50_NE USA_R50_SE USA_R50_SW USA_R50_NW USA_R64_NE USA_R64_SE USA_R64_SW USA_R64_NW USA_POCI USA_ROCI USA_RMW USA_EYE TOKYO_LAT TOKYO_LON TOKYO_GRADE TOKYO_WIND TOKYO_PRES TOKYO_R50_DIR TOKYO_R50_LONG TOKYO_R50_SHORT TOKYO_R30_DIR TOKYO_R30_LONG TOKYO_R30_SHORT TOKYO_LAND CMA_LAT CMA_LON CMA_CAT CMA_WIND CMA_PRES HKO_LAT HKO_LON HKO_CAT HKO_WIND HKO_PRES NEWDELHI_LAT NEWDELHI_LON NEWDELHI_GRADE NEWDELHI_WIND NEWDELHI_PRES NEWDELHI_CI NEWDELHI_DP NEWDELHI_POCI REUNION_LAT REUNION_LON REUNION_TYPE REUNION_WIND REUNION_PRES REUNION_TNUM REUNION_CI REUNION_RMW REUNION_R34_NE REUNION_R34_SE REUNION_R34_SW REUNION_R34_NW REUNION_R50_NE REUNION_R50_SE REUNION_R50_SW REUNION_R50_NW REUNION_R64_NE REUNION_R64_SE REUNION_R64_SW REUNION_R64_NW BOM_LAT BOM_LON BOM_TYPE BOM_WIND BOM_PRES BOM_TNUM BOM_CI BOM_RMW BOM_R34_NE BOM_R34_SE BOM_R34_SW BOM_R34_NW BOM_R50_NE BOM_R50_SE BOM_R50_SW BOM_R50_NW BOM_R64_NE BOM_R64_SE BOM_R64_SW BOM_R64_NW BOM_ROCI BOM_POCI BOM_EYE BOM_POS_METHOD BOM_PRES_METHOD NADI_LAT NADI_LON NADI_CAT NADI_WIND NADI_PRES WELLINGTON_LAT WELLINGTON_LON WELLINGTON_WIND WELLINGTON_PRES DS824_LAT DS824_LON DS824_STAGE DS824_WIND DS824_PRES TD9636_LAT TD9636_LON TD9636_STAGE TD9636_WIND TD9636_PRES TD9635_LAT TD9635_LON TD9635_WIND TD9635_PRES TD9635_ROCI NEUMANN_LAT NEUMANN_LON NEUMANN_CLASS NEUMANN_WIND NEUMANN_PRES MLC_LAT MLC_LON MLC_CLASS MLC_WIND MLC_PRES USA_GUST BOM_GUST BOM_GUST_PER REUNION_GUST REUNION_GUST_PER USA_SEAHGT USA_SEARAD_NE USA_SEARAD_SE USA_SEARAD_SW USA_SEARAD_NW STORM_SPEED STORM_DIR
1914256N18083 1914 32 NI BB NOT_NAMED 1914-09-13 00:00:00 TS 18.4000 83.3000 main 0 0 _________O____ -1 18.4000 83.3000 TC 30 6 270
1914256N18083 1914 32 NI BB NOT_NAMED 1914-09-13 03:00:00 TS 18.4018 83.0000 main 0 0 _________PO___ -1 18.4027 82.8500 TC 30 18.4000 83.3000 1 7 269
1914256N18083 1914 32 NI BB NOT_NAMED 1914-09-13 06:00:00 TS 18.3934 82.5824 main 0 0 _________OP___ -1 18.4000 82.4000 TC 30 18.3834 82.8560 1 8 269
1914256N18083 1914 32 NI BB NOT_NAMED 1914-09-13 09:00:00 TS 18.3841 82.1469 main 0 0 _________PP___ -1 18.3924 81.9499 TC 30 18.3730 82.4096 1 8 270
1914256N18083 1914 32 NI BB NOT_NAMED 1914-09-13 12:00:00 TS 18.3881 81.7292 main 0 0 _________OP___ -1 18.4000 81.5000 TC 30 18.3762 81.9585 1 8 272
1914256N18083 1914 32 NI BB NOT_NAMED 1914-09-13 15:00:00 TS 18.4175 81.2712 main 0 0 _________PO___ -1 18.4349 81.0425 TC 30 18.4000 81.5000 1 9 276
1914256N18083 1914 32 NI BB NOT_NAMED 1914-09-13 18:00:00 TS 18.4747 80.8178 main 0 0 _________OP___ -1 18.5000 80.6000 TC 30 18.4494 81.0356 1 9 279
1914256N18083 1914 32 NI BB NOT_NAMED 1914-09-13 21:00:00 TS 18.5563 80.3764 main 0 0 _________PP___ -1 18.5925 80.1700 TC 30 18.5202 80.5828 1 8 283
1914256N18083 1914 32 NI BB NOT_NAMED 1914-09-14 00:00:00 TS 18.6529 79.9818 main 0 0 _________OP___ -1 18.7000 79.8000 TC 30 18.6058 80.1636 1 7 286
1914256N18083 1914 32 NI BB NOT_NAMED 1914-09-14 03:00:00 TS 18.7499 79.6600 main 0 0 _________PO___ -1 18.7999 79.5200 TC 30 18.7000 79.8000 1 6 289
1914256N18083 1914 32 NI BB NOT_NAMED 1914-09-14 06:00:00 TS 18.8421 79.4066 main 0 0 _________OP___ -1 18.9000 79.3000 TC 30 18.7842 79.5132 1 5 292
1914256N18083 1914 32 NI BB NOT_NAMED 1914-09-14 09:00:00 TS 18.9347 79.1873 main 0 0 _________PP___ -1 18.9925 79.0924 TC 30 18.8769 79.2822 1 4 297
1914256N18083 1914 32 NI BB NOT_NAMED 1914-09-14 12:00:00 TS 19.0406 78.9926 main 0 0 _________OP___ -1 19.1000 78.9000 TC 30 18.9812 79.0851 1 4 303
1914256N18083 1914 32 NI BB NOT_NAMED 1914-09-14 15:00:00 TS 19.1712 78.8000 main 0 0 _________PO___ -1 19.2425 78.7000 TC 30 19.1000 78.9000 1 4 307
1914256N18083 1914 32 NI BB NOT_NAMED 1914-09-14 18:00:00 TS 19.3013 78.6203 main 0 0 _________OP___ -1 19.4000 78.5000 TC 30 19.2025 78.7406 1 4 308
1914256N18083 1914 32 NI BB NOT_NAMED 1914-09-14 21:00:00 TS 19.4219 78.4628 main 0 0 _________PP___ -1 19.5198 78.3446 TC 30 19.3240 78.5809 1 5 309
1914256N18083 1914 32 NI BB NOT_NAMED 1914-09-15 00:00:00 TS 19.5918 78.2404 main 0 0 _________OP___ -1 19.7000 78.1000 TC 30 19.4835 78.3808 1 7 308
1914256N18083 1914 32 NI AS NOT_NAMED 1914-09-15 03:00:00 TS 19.8601 77.8726 main 0 0 _________PO___ -1 20.0202 77.6452 TC 30 19.7000 78.1000 1 10 308
1914256N18083 1914 32 NI AS NOT_NAMED 1914-09-15 06:00:00 TS 20.2046 77.3936 main 0 0 _________OP___ -1 20.4000 77.1000 TC 30 20.0092 77.6873 1 12 308
1914256N18083 1914 32 NI AS NOT_NAMED 1914-09-15 09:00:00 TS 20.5678 76.8957 main 0 0 _________PP___ -1 20.7649 76.5999 TC 30 20.3707 77.1914 1 12 307
1914256N18083 1914 32 NI AS NOT_NAMED 1914-09-15 12:00:00 TS 20.9233 76.3748 main 0 0 _________OP___ -1 21.1000 76.1000 TC 30 20.7467 76.6497 1 12 304
1914256N18083 1914 32 NI AS NOT_NAMED 1914-09-15 15:00:00 TS 21.2324 75.8498 main 0 0 _________PO___ -1 21.3648 75.5997 TC 30 21.1000 76.1000 1 11 300
1914256N18083 1914 32 NI AS NOT_NAMED 1914-09-15 18:00:00 TS 21.4956 75.3276 main 0 0 _________OP___ -1 21.6000 75.1000 TC 30 21.3912 75.5552 1 11 298
1914256N18083 1914 32 NI AS NOT_NAMED 1914-09-15 21:00:00 TS 21.7591 74.7901 main 0 0 _________PP___ -1 21.8651 74.5626 TC 30 21.6530 75.0175 1 11 298
1914256N18083 1914 32 NI AS NOT_NAMED 1914-09-16 00:00:00 TS 21.9941 74.3105 main 0 0 _________OP___ -1 22.1000 74.1000 TC 30 21.8882 74.5210 1 9 298
1914256N18083 1914 32 NI AS NOT_NAMED 1914-09-16 03:00:00 TS 22.1786 73.9523 main 0 0 _________PO___ -1 22.2573 73.8047 TC 30 22.1000 74.1000 1 7 301
1914256N18083 1914 32 NI AS NOT_NAMED 1914-09-16 06:00:00 TS 22.3458 73.6894 main 0 0 _________OP___ -1 22.4000 73.6000 TC 30 22.2917 73.7789 1 6 308
1914256N18083 1914 32 NI AS NOT_NAMED 1914-09-16 09:00:00 TS 22.5283 73.4607 main 0 0 _________PP___ -1 22.5925 73.3850 TC 30 22.4641 73.5365 1 5 314
1914256N18083 1914 32 NI AS NOT_NAMED 1914-09-16 12:00:00 TS 22.7147 73.2755 main 0 0 _________OP___ -1 22.8000 73.2000 TC 30 22.6295 73.3510 1 5 320
1914256N18083 1914 32 NI AS NOT_NAMED 1914-09-16 15:00:00 TS 22.9000 73.1175 main 0 0 _________PO___ -1 23.0000 73.0350 TC 30 22.8000 73.2000 1 5 321
1914256N18083 1914 32 NI AS NOT_NAMED 1914-09-16 18:00:00 TS 23.0720 72.9589 main 0 0 _________OP___ -1 23.2000 72.9000 TC 30 22.9440 73.0178 1 4 321
1914256N18083 1914 32 NI AS NOT_NAMED 1914-09-16 21:00:00 TS 23.2287 72.8263 main 0 0 _________PP___ -1 23.3550 72.7849 TC 30 23.1024 72.8677 1 4 331
1914256N18083 1914 32 NI AS NOT_NAMED 1914-09-17 00:00:00 TS 23.4548 72.7293 main 0 0 _________OP___ -1 23.6000 72.7000 TC 30 23.3096 72.7587 1 6 345
1914256N18083 1914 32 NI AS NOT_NAMED 1914-09-17 03:00:00 TS 23.8275 72.6564 main 0 0 _________PO___ -1 24.0550 72.6128 TC 30 23.6000 72.7000 1 9 354
1914256N18083 1914 32 NI AS NOT_NAMED 1914-09-17 06:00:00 TS 24.3189 72.6317 main 0 0 _________OP___ -1 24.6000 72.6000 TC 30 24.0379 72.6634 1 10 2
1914256N18083 1914 32 NI AS NOT_NAMED 1914-09-17 09:00:00 TS 24.8348 72.6964 main 0 0 _________PP___ -1 25.1150 72.7123 TC 30 24.5547 72.6805 1 10 10
1914256N18083 1914 32 NI AS NOT_NAMED 1914-09-17 12:00:00 TS 25.3470 72.8287 main 0 0 _________OP___ -1 25.6000 72.9000 TC 30 25.0941 72.7573 1 10 15
1914256N18083 1914 32 NI AS NOT_NAMED 1914-09-17 15:00:00 TS 25.8149 72.9851 main 0 0 _________PO___ -1 26.0299 73.0702 TC 30 25.6000 72.9000 1 9 21
1914256N18083 1914 32 NI AS NOT_NAMED 1914-09-17 18:00:00 TS 26.1881 73.1918 main 0 0 _________OP___ -1 26.4000 73.3000 TC 30 26.0292 73.1107 1 8 32
1914256N18083 1914 32 NI AS NOT_NAMED 1914-09-17 21:00:00 TS 26.5206 73.4744 main 0 0 _________PP___ -1 26.7153 73.6221 TC 30 26.3908 73.3760 1 8 41
1914256N18083 1914 32 NI AS NOT_NAMED 1914-09-18 00:00:00 TS 26.8046 73.7856 main 0 0 _________OP___ -1 27.0000 74.0000 TC 30 26.7070 73.6784 1 7 44
1914256N18083 1914 32 NI AS NOT_NAMED 1914-09-18 03:00:00 NR 27.0000 74.0000 main 0 __________O___ -1 TC 27.0000 74.0000 1 5 44

IBTrACS Databaseについて

本データベースは、米国NOAAが公開する1842年以降の世界の熱帯低気圧のベストトラックデータアーカイブInternational Best Track Archive for Climate Stewardship (IBTrACS)を、ウェブで閲覧しやすい形式に変換したものです。

最終更新日:2021-10-21